sensor_id;sensor_type;location;lat;lon;timestamp;temperature;humidity
23591;DHT22;11973;52.098;7.582;2023-09-19T04:16:03;14.60;99.90
23591;DHT22;11973;52.098;7.582;2023-09-19T04:18:36;14.60;99.90
23591;DHT22;11973;52.098;7.582;2023-09-19T04:21:04;14.60;99.90
23591;DHT22;11973;52.098;7.582;2023-09-19T04:23:32;14.60;99.90
23591;DHT22;11973;52.098;7.582;2023-09-19T04:25:58;14.60;99.90
23591;DHT22;11973;52.098;7.582;2023-09-19T04:28:24;14.60;99.90
23591;DHT22;11973;52.098;7.582;2023-09-19T04:30:50;14.50;99.90
23591;DHT22;11973;52.098;7.582;2023-09-19T04:33:16;14.50;99.90
23591;DHT22;11973;52.098;7.582;2023-09-19T04:35:41;14.50;99.90
23591;DHT22;11973;52.098;7.582;2023-09-19T04:38:10;14.50;99.90
23591;DHT22;11973;52.098;7.582;2023-09-19T04:40:37;14.50;99.90
23591;DHT22;11973;52.098;7.582;2023-09-19T04:43:05;14.40;99.90
23591;DHT22;11973;52.098;7.582;2023-09-19T04:45:31;14.40;99.90
23591;DHT22;11973;52.098;7.582;2023-09-19T04:47:57;14.40;99.90
23591;DHT22;11973;52.098;7.582;2023-09-19T04:50:22;14.30;99.90
23591;DHT22;11973;52.098;7.582;2023-09-19T04:52:50;14.30;99.90
23591;DHT22;11973;52.098;7.582;2023-09-19T04:55:17;14.30;99.90
23591;DHT22;11973;52.098;7.582;2023-09-19T04:57:44;14.20;99.90
23591;DHT22;11973;52.098;7.582;2023-09-19T05:00:14;14.20;99.90
23591;DHT22;11973;52.098;7.582;2023-09-19T05:02:42;14.20;99.90
23591;DHT22;11973;52.098;7.582;2023-09-19T05:05:09;14.20;99.90
23591;DHT22;11973;52.098;7.582;2023-09-19T05:07:41;14.10;99.90
23591;DHT22;11973;52.098;7.582;2023-09-19T05:10:07;14.10;99.90
23591;DHT22;11973;52.098;7.582;2023-09-19T05:12:34;14.10;99.90
23591;DHT22;11973;52.098;7.582;2023-09-19T05:15:05;14.00;99.90
23591;DHT22;11973;52.098;7.582;2023-09-19T05:17:34;14.00;99.90
23591;DHT22;11973;52.098;7.582;2023-09-19T05:20:00;14.00;99.90
23591;DHT22;11973;52.098;7.582;2023-09-19T05:22:31;14.00;99.90
23591;DHT22;11973;52.098;7.582;2023-09-19T05:24:58;14.00;99.90
23591;DHT22;11973;52.098;7.582;2023-09-19T05:27:24;13.90;99.90
23591;DHT22;11973;52.098;7.582;2023-09-19T05:29:50;13.90;99.90
23591;DHT22;11973;52.098;7.582;2023-09-19T05:32:19;13.90;99.90
23591;DHT22;11973;52.098;7.582;2023-09-19T05:34:46;13.90;99.90
23591;DHT22;11973;52.098;7.582;2023-09-19T05:37:12;13.90;99.90
23591;DHT22;11973;52.098;7.582;2023-09-19T05:39:42;13.90;99.90
23591;DHT22;11973;52.098;7.582;2023-09-19T05:42:09;13.90;99.90
23591;DHT22;11973;52.098;7.582;2023-09-19T05:44:35;13.90;99.90
23591;DHT22;11973;52.098;7.582;2023-09-19T05:47:02;13.90;99.90
23591;DHT22;11973;52.098;7.582;2023-09-19T05:49:28;13.90;99.90
23591;DHT22;11973;52.098;7.582;2023-09-19T05:51:54;13.90;99.90
23591;DHT22;11973;52.098;7.582;2023-09-19T05:54:21;14.00;99.90
23591;DHT22;11973;52.098;7.582;2023-09-19T05:56:47;14.00;99.90
23591;DHT22;11973;52.098;7.582;2023-09-19T05:59:14;14.00;99.90
23591;DHT22;11973;52.098;7.582;2023-09-19T06:01:42;14.00;99.90
23591;DHT22;11973;52.098;7.582;2023-09-19T06:04:08;14.00;99.90
23591;DHT22;11973;52.098;7.582;2023-09-19T06:06:34;14.10;99.90
23591;DHT22;11973;52.098;7.582;2023-09-19T06:09:06;14.20;99.90
23591;DHT22;11973;52.098;7.582;2023-09-19T06:11:34;14.20;99.90
23591;DHT22;11973;52.098;7.582;2023-09-19T06:14:04;14.30;99.90
23591;DHT22;11973;52.098;7.582;2023-09-19T06:16:30;14.40;99.90
23591;DHT22;11973;52.098;7.582;2023-09-19T06:18:57;14.50;99.90
23591;DHT22;11973;52.098;7.582;2023-09-19T06:21:26;14.60;99.90
23591;DHT22;11973;52.098;7.582;2023-09-19T06:23:55;14.60;99.90
23591;DHT22;11973;52.098;7.582;2023-09-19T06:26:23;14.70;99.90
23591;DHT22;11973;52.098;7.582;2023-09-19T06:28:49;14.80;99.90
23591;DHT22;11973;52.098;7.582;2023-09-19T06:31:14;14.80;99.90
23591;DHT22;11973;52.098;7.582;2023-09-19T06:33:40;14.90;99.90
23591;DHT22;11973;52.098;7.582;2023-09-19T06:36:07;14.90;99.90
23591;DHT22;11973;52.098;7.582;2023-09-19T06:38:33;15.00;99.90
23591;DHT22;11973;52.098;7.582;2023-09-19T06:41:03;15.00;99.90
23591;DHT22;11973;52.098;7.582;2023-09-19T06:43:32;15.00;99.90
23591;DHT22;11973;52.098;7.582;2023-09-19T06:46:00;15.00;99.90
23591;DHT22;11973;52.098;7.582;2023-09-19T06:48:26;15.00;99.90
23591;DHT22;11973;52.098;7.582;2023-09-19T06:50:55;15.00;99.90
23591;DHT22;11973;52.098;7.582;2023-09-19T06:53:21;15.00;99.80
23591;DHT22;11973;52.098;7.582;2023-09-19T06:55:53;15.00;99.80
23591;DHT22;11973;52.098;7.582;2023-09-19T06:58:19;15.00;99.80
23591;DHT22;11973;52.098;7.582;2023-09-19T07:00:46;14.90;99.70
23591;DHT22;11973;52.098;7.582;2023-09-19T07:03:13;15.00;99.80
23591;DHT22;11973;52.098;7.582;2023-09-19T07:05:40;15.00;99.80
23591;DHT22;11973;52.098;7.582;2023-09-19T07:08:07;15.00;99.90
23591;DHT22;11973;52.098;7.582;2023-09-19T07:10:35;15.00;99.70
23591;DHT22;11973;52.098;7.582;2023-09-19T07:15:28;15.20;99.80
23591;DHT22;11973;52.098;7.582;2023-09-19T07:17:56;15.20;99.80
23591;DHT22;11973;52.098;7.582;2023-09-19T07:20:23;15.30;99.90
23591;DHT22;11973;52.098;7.582;2023-09-19T07:22:52;15.40;99.80
23591;DHT22;11973;52.098;7.582;2023-09-19T07:25:18;15.40;99.90
23591;DHT22;11973;52.098;7.582;2023-09-19T07:27:44;15.50;99.90
23591;DHT22;11973;52.098;7.582;2023-09-19T07:30:10;15.50;99.70
23591;DHT22;11973;52.098;7.582;2023-09-19T07:32:37;15.60;99.60
23591;DHT22;11973;52.098;7.582;2023-09-19T07:35:04;15.70;99.70
23591;DHT22;11973;52.098;7.582;2023-09-19T07:37:34;15.70;99.60
23591;DHT22;11973;52.098;7.582;2023-09-19T07:40:00;15.80;99.60
23591;DHT22;11973;52.098;7.582;2023-09-19T07:42:36;15.80;99.50
23591;DHT22;11973;52.098;7.582;2023-09-19T07:45:07;15.90;99.50
23591;DHT22;11973;52.098;7.582;2023-09-19T07:47:33;16.00;99.50
23591;DHT22;11973;52.098;7.582;2023-09-19T07:50:00;16.00;99.80
23591;DHT22;11973;52.098;7.582;2023-09-19T07:52:29;16.10;99.40
23591;DHT22;11973;52.098;7.582;2023-09-19T07:54:55;16.10;99.40
23591;DHT22;11973;52.098;7.582;2023-09-19T07:57:22;16.20;99.80
23591;DHT22;11973;52.098;7.582;2023-09-19T07:59:48;16.20;99.30
23591;DHT22;11973;52.098;7.582;2023-09-19T08:02:14;16.30;99.40
23591;DHT22;11973;52.098;7.582;2023-09-19T08:04:43;16.30;99.30
23591;DHT22;11973;52.098;7.582;2023-09-19T08:07:12;16.40;99.30
23591;DHT22;11973;52.098;7.582;2023-09-19T08:09:38;16.50;99.30
23591;DHT22;11973;52.098;7.582;2023-09-19T08:12:06;16.50;99.30
23591;DHT22;11973;52.098;7.582;2023-09-19T08:14:33;16.60;99.30
23591;DHT22;11973;52.098;7.582;2023-09-19T08:16:59;16.70;99.30
23591;DHT22;11973;52.098;7.582;2023-09-19T08:19:26;16.70;99.20
23591;DHT22;11973;52.098;7.582;2023-09-19T08:21:57;16.80;99.10
23591;DHT22;11973;52.098;7.582;2023-09-19T08:24:27;16.90;99.20
23591;DHT22;11973;52.098;7.582;2023-09-19T08:26:57;16.90;99.10
23591;DHT22;11973;52.098;7.582;2023-09-19T08:29:24;17.00;99.10
23591;DHT22;11973;52.098;7.582;2023-09-19T08:31:54;17.10;99.10
23591;DHT22;11973;52.098;7.582;2023-09-19T08:34:22;17.10;99.30
23591;DHT22;11973;52.098;7.582;2023-09-19T08:36:50;17.20;98.90
23591;DHT22;11973;52.098;7.582;2023-09-19T08:39:18;17.20;98.80
23591;DHT22;11973;52.098;7.582;2023-09-19T08:41:44;17.30;98.80
23591;DHT22;11973;52.098;7.582;2023-09-19T08:44:10;17.30;98.70
23591;DHT22;11973;52.098;7.582;2023-09-19T08:46:40;17.30;98.60
23591;DHT22;11973;52.098;7.582;2023-09-19T08:49:44;17.40;98.60
23591;DHT22;11973;52.098;7.582;2023-09-19T08:52:22;17.40;98.40
23591;DHT22;11973;52.098;7.582;2023-09-19T08:54:52;17.50;98.50
23591;DHT22;11973;52.098;7.582;2023-09-19T08:57:21;17.50;98.40
23591;DHT22;11973;52.098;7.582;2023-09-19T08:59:51;17.50;98.40
23591;DHT22;11973;52.098;7.582;2023-09-19T09:02:17;17.50;98.70
23591;DHT22;11973;52.098;7.582;2023-09-19T09:04:45;17.50;98.30
23591;DHT22;11973;52.098;7.582;2023-09-19T09:07:12;17.60;98.30
23591;DHT22;11973;52.098;7.582;2023-09-19T09:09:38;17.60;98.30
23591;DHT22;11973;52.098;7.582;2023-09-19T09:12:12;17.60;98.20
23591;DHT22;11973;52.098;7.582;2023-09-19T09:14:45;17.60;98.10
23591;DHT22;11973;52.098;7.582;2023-09-19T09:17:14;17.70;98.00
23591;DHT22;11973;52.098;7.582;2023-09-19T09:19:40;17.70;98.00
23591;DHT22;11973;52.098;7.582;2023-09-19T09:22:11;17.70;97.90
23591;DHT22;11973;52.098;7.582;2023-09-19T09:24:38;17.70;97.70
23591;DHT22;11973;52.098;7.582;2023-09-19T09:27:16;17.70;97.70
23591;DHT22;11973;52.098;7.582;2023-09-19T09:29:48;17.70;97.60
23591;DHT22;11973;52.098;7.582;2023-09-19T09:34:52;17.90;97.70
23591;DHT22;11973;52.098;7.582;2023-09-19T09:37:19;17.90;97.60
23591;DHT22;11973;52.098;7.582;2023-09-19T09:42:36;18.00;97.50
23591;DHT22;11973;52.098;7.582;2023-09-19T09:45:20;18.10;97.40
23591;DHT22;11973;52.098;7.582;2023-09-19T09:47:59;18.20;97.50
23591;DHT22;11973;52.098;7.582;2023-09-19T09:50:36;18.30;97.60
23591;DHT22;11973;52.098;7.582;2023-09-19T09:53:30;18.30;97.40
23591;DHT22;11973;52.098;7.582;2023-09-19T09:56:06;18.40;97.20
23591;DHT22;11973;52.098;7.582;2023-09-19T09:58:52;18.50;97.40
23591;DHT22;11973;52.098;7.582;2023-09-19T10:01:21;18.50;97.10
23591;DHT22;11973;52.098;7.582;2023-09-19T10:03:57;18.60;97.30
23591;DHT22;11973;52.098;7.582;2023-09-19T10:06:23;18.70;97.20
23591;DHT22;11973;52.098;7.582;2023-09-19T10:11:31;18.80;96.80
23591;DHT22;11973;52.098;7.582;2023-09-19T10:14:00;18.80;96.70
23591;DHT22;11973;52.098;7.582;2023-09-19T10:16:30;18.90;96.70
23591;DHT22;11973;52.098;7.582;2023-09-19T10:18:59;19.00;97.00
23591;DHT22;11973;52.098;7.582;2023-09-19T10:21:28;19.00;96.60
23591;DHT22;11973;52.098;7.582;2023-09-19T10:24:00;19.10;96.60
23591;DHT22;11973;52.098;7.582;2023-09-19T10:26:28;19.10;96.60
23591;DHT22;11973;52.098;7.582;2023-09-19T10:28:57;19.20;96.60
23591;DHT22;11973;52.098;7.582;2023-09-19T10:31:28;19.30;96.90
23591;DHT22;11973;52.098;7.582;2023-09-19T10:33:55;19.40;96.50
23591;DHT22;11973;52.098;7.582;2023-09-19T10:36:24;19.40;96.30
23591;DHT22;11973;52.098;7.582;2023-09-19T10:38:55;19.40;96.20
23591;DHT22;11973;52.098;7.582;2023-09-19T10:41:23;19.40;96.10
23591;DHT22;11973;52.098;7.582;2023-09-19T10:43:51;19.40;95.90
23591;DHT22;11973;52.098;7.582;2023-09-19T10:46:19;19.50;95.80
23591;DHT22;11973;52.098;7.582;2023-09-19T10:48:45;19.60;95.80
23591;DHT22;11973;52.098;7.582;2023-09-19T10:51:20;19.70;95.80
23591;DHT22;11973;52.098;7.582;2023-09-19T10:54:33;19.80;95.70
23591;DHT22;11973;52.098;7.582;2023-09-19T10:56:43;19.90;95.70
23591;DHT22;11973;52.098;7.582;2023-09-19T10:59:15;20.00;95.90
23591;DHT22;11973;52.098;7.582;2023-09-19T11:01:43;20.10;95.50
23591;DHT22;11973;52.098;7.582;2023-09-19T11:04:32;20.20;95.20
23591;DHT22;11973;52.098;7.582;2023-09-19T11:07:09;20.30;95.00
23591;DHT22;11973;52.098;7.582;2023-09-19T11:09:44;20.40;94.90
23591;DHT22;11973;52.098;7.582;2023-09-19T11:14:58;20.50;94.30
23591;DHT22;11973;52.098;7.582;2023-09-19T11:17:35;20.40;94.40
23591;DHT22;11973;52.098;7.582;2023-09-19T11:25:41;20.50;93.90
23591;DHT22;11973;52.098;7.582;2023-09-19T11:30:47;20.70;93.90
23591;DHT22;11973;52.098;7.582;2023-09-19T11:33:31;20.70;93.70
23591;DHT22;11973;52.098;7.582;2023-09-19T11:46:52;20.90;92.50
23591;DHT22;11973;52.098;7.582;2023-09-19T11:49:21;20.90;92.10
23591;DHT22;11973;52.098;7.582;2023-09-19T11:51:52;20.90;92.20
23591;DHT22;11973;52.098;7.582;2023-09-19T11:54:18;20.90;92.10
23591;DHT22;11973;52.098;7.582;2023-09-19T11:56:45;21.00;91.90
23591;DHT22;11973;52.098;7.582;2023-09-19T11:59:22;21.10;91.90
23591;DHT22;11973;52.098;7.582;2023-09-19T12:01:53;21.20;91.50
23591;DHT22;11973;52.098;7.582;2023-09-19T12:04:42;21.30;91.30
23591;DHT22;11973;52.098;7.582;2023-09-19T12:07:15;21.30;90.90
23591;DHT22;11973;52.098;7.582;2023-09-19T12:09:49;21.40;91.20
23591;DHT22;11973;52.098;7.582;2023-09-19T12:12:23;21.40;90.70
23591;DHT22;11973;52.098;7.582;2023-09-19T12:14:52;21.50;90.90
23591;DHT22;11973;52.098;7.582;2023-09-19T12:17:18;21.40;90.50
23591;DHT22;11973;52.098;7.582;2023-09-19T12:19:52;21.40;90.50
23591;DHT22;11973;52.098;7.582;2023-09-19T12:22:18;21.50;90.40
23591;DHT22;11973;52.098;7.582;2023-09-19T12:24:46;21.50;90.30
23591;DHT22;11973;52.098;7.582;2023-09-19T12:27:12;21.60;90.00
23591;DHT22;11973;52.098;7.582;2023-09-19T12:29:47;21.70;90.10
23591;DHT22;11973;52.098;7.582;2023-09-19T12:32:16;21.80;90.00
23591;DHT22;11973;52.098;7.582;2023-09-19T12:34:51;22.00;90.00
23591;DHT22;11973;52.098;7.582;2023-09-19T12:37:18;22.10;89.60
23591;DHT22;11973;52.098;7.582;2023-09-19T12:39:49;22.20;89.50
23591;DHT22;11973;52.098;7.582;2023-09-19T12:42:18;22.40;89.30
23591;DHT22;11973;52.098;7.582;2023-09-19T12:44:49;22.50;88.70
23591;DHT22;11973;52.098;7.582;2023-09-19T12:47:21;22.60;87.90
23591;DHT22;11973;52.098;7.582;2023-09-19T12:50:15;22.60;87.80
23591;DHT22;11973;52.098;7.582;2023-09-19T12:52:50;22.50;87.90
23591;DHT22;11973;52.098;7.582;2023-09-19T12:55:34;22.50;88.40
23591;DHT22;11973;52.098;7.582;2023-09-19T13:03:19;22.40;86.60
23591;DHT22;11973;52.098;7.582;2023-09-19T13:06:03;22.30;86.40
23591;DHT22;11973;52.098;7.582;2023-09-19T13:08:34;22.30;86.30
23591;DHT22;11973;52.098;7.582;2023-09-19T13:13:39;22.40;86.20
23591;DHT22;11973;52.098;7.582;2023-09-19T13:16:07;22.40;85.70
23591;DHT22;11973;52.098;7.582;2023-09-19T13:18:42;22.30;82.70
23591;DHT22;11973;52.098;7.582;2023-09-19T13:21:11;22.40;83.70
23591;DHT22;11973;52.098;7.582;2023-09-19T13:23:54;22.40;84.30
23591;DHT22;11973;52.098;7.582;2023-09-19T13:26:25;22.40;84.70
23591;DHT22;11973;52.098;7.582;2023-09-19T13:28:56;22.30;84.20
23591;DHT22;11973;52.098;7.582;2023-09-19T13:31:22;22.30;84.20
23591;DHT22;11973;52.098;7.582;2023-09-19T13:33:49;22.30;83.90
23591;DHT22;11973;52.098;7.582;2023-09-19T13:36:16;22.30;83.60
23591;DHT22;11973;52.098;7.582;2023-09-19T13:38:44;22.30;83.30
23591;DHT22;11973;52.098;7.582;2023-09-19T13:41:10;22.30;83.10
23591;DHT22;11973;52.098;7.582;2023-09-19T13:43:37;22.40;83.20
23591;DHT22;11973;52.098;7.582;2023-09-19T13:46:04;22.40;83.20
23591;DHT22;11973;52.098;7.582;2023-09-19T13:48:33;22.40;83.10
23591;DHT22;11973;52.098;7.582;2023-09-19T13:51:02;22.50;83.00
23591;DHT22;11973;52.098;7.582;2023-09-19T13:53:29;22.40;82.60
23591;DHT22;11973;52.098;7.582;2023-09-19T13:55:55;22.30;82.60
23591;DHT22;11973;52.098;7.582;2023-09-19T13:58:20;22.30;82.30
23591;DHT22;11973;52.098;7.582;2023-09-19T14:00:49;22.30;81.90
23591;DHT22;11973;52.098;7.582;2023-09-19T14:03:15;22.40;82.60
23591;DHT22;11973;52.098;7.582;2023-09-19T14:05:41;22.40;81.60
23591;DHT22;11973;52.098;7.582;2023-09-19T14:08:08;22.40;81.40
23591;DHT22;11973;52.098;7.582;2023-09-19T14:10:34;22.40;81.00
23591;DHT22;11973;52.098;7.582;2023-09-19T14:13:00;22.40;80.80
23591;DHT22;11973;52.098;7.582;2023-09-19T14:15:29;22.30;80.80
23591;DHT22;11973;52.098;7.582;2023-09-19T14:17:59;22.30;78.80
23591;DHT22;11973;52.098;7.582;2023-09-19T14:20:26;22.30;79.40
23591;DHT22;11973;52.098;7.582;2023-09-19T14:22:55;22.40;79.60
23591;DHT22;11973;52.098;7.582;2023-09-19T14:25:21;22.40;79.60
23591;DHT22;11973;52.098;7.582;2023-09-19T14:27:47;22.30;79.40
23591;DHT22;11973;52.098;7.582;2023-09-19T14:30:13;22.20;79.50
23591;DHT22;11973;52.098;7.582;2023-09-19T14:32:39;22.10;79.50
23591;DHT22;11973;52.098;7.582;2023-09-19T14:35:07;21.90;79.30
23591;DHT22;11973;52.098;7.582;2023-09-19T14:37:33;21.80;79.20
23591;DHT22;11973;52.098;7.582;2023-09-19T14:39:58;21.60;79.00
23591;DHT22;11973;52.098;7.582;2023-09-19T14:42:24;21.50;78.90
23591;DHT22;11973;52.098;7.582;2023-09-19T14:44:50;21.50;79.10
23591;DHT22;11973;52.098;7.582;2023-09-19T14:47:16;21.40;79.00
23591;DHT22;11973;52.098;7.582;2023-09-19T14:49:42;21.40;79.00
23591;DHT22;11973;52.098;7.582;2023-09-19T14:52:09;21.40;79.10
23591;DHT22;11973;52.098;7.582;2023-09-19T14:54:37;21.50;79.00
23591;DHT22;11973;52.098;7.582;2023-09-19T14:57:04;21.60;79.00
23591;DHT22;11973;52.098;7.582;2023-09-19T14:59:33;21.90;79.40
23591;DHT22;11973;52.098;7.582;2023-09-19T15:02:03;22.20;80.20
23591;DHT22;11973;52.098;7.582;2023-09-19T15:04:29;22.30;79.00
23591;DHT22;11973;52.098;7.582;2023-09-19T15:06:55;22.30;78.70
23591;DHT22;11973;52.098;7.582;2023-09-19T15:09:22;22.20;76.90
23591;DHT22;11973;52.098;7.582;2023-09-19T15:11:52;22.10;77.30
23591;DHT22;11973;52.098;7.582;2023-09-19T15:14:18;21.90;77.50
23591;DHT22;11973;52.098;7.582;2023-09-19T15:16:44;21.80;77.40
23591;DHT22;11973;52.098;7.582;2023-09-19T15:19:10;21.60;77.40
23591;DHT22;11973;52.098;7.582;2023-09-19T15:21:36;21.60;77.50
23591;DHT22;11973;52.098;7.582;2023-09-19T15:24:06;21.60;77.50
23591;DHT22;11973;52.098;7.582;2023-09-19T15:26:35;21.70;77.40
23591;DHT22;11973;52.098;7.582;2023-09-19T15:29:05;21.80;77.40
23591;DHT22;11973;52.098;7.582;2023-09-19T15:31:31;21.90;77.10
23591;DHT22;11973;52.098;7.582;2023-09-19T15:33:57;21.90;77.30
23591;DHT22;11973;52.098;7.582;2023-09-19T15:36:23;21.90;77.30
23591;DHT22;11973;52.098;7.582;2023-09-19T15:39:00;22.00;77.30
23591;DHT22;11973;52.098;7.582;2023-09-19T15:41:38;21.90;77.00
23591;DHT22;11973;52.098;7.582;2023-09-19T15:44:10;21.90;76.90
23591;DHT22;11973;52.098;7.582;2023-09-19T15:46:36;21.80;76.80
23591;DHT22;11973;52.098;7.582;2023-09-19T15:49:03;21.80;76.90
23591;DHT22;11973;52.098;7.582;2023-09-19T15:51:29;21.70;76.80
23591;DHT22;11973;52.098;7.582;2023-09-19T15:53:56;21.60;76.70
23591;DHT22;11973;52.098;7.582;2023-09-19T15:56:23;21.50;76.50
23591;DHT22;11973;52.098;7.582;2023-09-19T15:58:51;21.40;76.60
23591;DHT22;11973;52.098;7.582;2023-09-19T16:01:17;21.30;76.40
23591;DHT22;11973;52.098;7.582;2023-09-19T16:03:49;21.20;76.50
23591;DHT22;11973;52.098;7.582;2023-09-19T16:06:17;21.10;76.60
23591;DHT22;11973;52.098;7.582;2023-09-19T16:08:47;21.00;76.60
23591;DHT22;11973;52.098;7.582;2023-09-19T16:11:14;20.90;76.50
23591;DHT22;11973;52.098;7.582;2023-09-19T16:13:41;20.90;76.60
23591;DHT22;11973;52.098;7.582;2023-09-19T16:16:08;20.80;76.60
23591;DHT22;11973;52.098;7.582;2023-09-19T16:18:38;20.70;76.70
23591;DHT22;11973;52.098;7.582;2023-09-19T16:21:06;20.70;76.70
23591;DHT22;11973;52.098;7.582;2023-09-19T16:23:33;20.60;76.70
23591;DHT22;11973;52.098;7.582;2023-09-19T16:26:09;20.50;76.60
23591;DHT22;11973;52.098;7.582;2023-09-19T16:28:37;20.40;76.50
23591;DHT22;11973;52.098;7.582;2023-09-19T16:31:04;20.40;76.60
23591;DHT22;11973;52.098;7.582;2023-09-19T16:33:34;20.30;76.80
23591;DHT22;11973;52.098;7.582;2023-09-19T16:36:06;20.30;76.80
23591;DHT22;11973;52.098;7.582;2023-09-19T16:38:32;20.20;76.90
23591;DHT22;11973;52.098;7.582;2023-09-19T16:40:59;20.20;77.00
23591;DHT22;11973;52.098;7.582;2023-09-19T16:43:25;20.20;77.10
23591;DHT22;11973;52.098;7.582;2023-09-19T16:45:59;20.20;77.20
23591;DHT22;11973;52.098;7.582;2023-09-19T16:48:26;20.20;77.30
23591;DHT22;11973;52.098;7.582;2023-09-19T16:50:53;20.20;77.30
23591;DHT22;11973;52.098;7.582;2023-09-19T16:53:20;20.10;77.10
23591;DHT22;11973;52.098;7.582;2023-09-19T16:55:47;20.00;77.10
23591;DHT22;11973;52.098;7.582;2023-09-19T16:58:14;20.00;77.20
23591;DHT22;11973;52.098;7.582;2023-09-19T17:00:40;19.90;77.30
23591;DHT22;11973;52.098;7.582;2023-09-19T17:03:06;19.90;77.30
23591;DHT22;11973;52.098;7.582;2023-09-19T17:05:32;19.90;77.30
23591;DHT22;11973;52.098;7.582;2023-09-19T17:07:58;19.80;77.10
23591;DHT22;11973;52.098;7.582;2023-09-19T17:10:24;19.80;77.10
23591;DHT22;11973;52.098;7.582;2023-09-19T17:12:53;19.80;77.20
23591;DHT22;11973;52.098;7.582;2023-09-19T17:15:21;19.70;77.20
23591;DHT22;11973;52.098;7.582;2023-09-19T17:17:47;19.70;77.30
23591;DHT22;11973;52.098;7.582;2023-09-19T17:20:12;19.60;77.30
23591;DHT22;11973;52.098;7.582;2023-09-19T17:22:38;19.60;77.40
23591;DHT22;11973;52.098;7.582;2023-09-19T17:25:04;19.60;77.50
23591;DHT22;11973;52.098;7.582;2023-09-19T17:27:30;19.60;77.60
23591;DHT22;11973;52.098;7.582;2023-09-19T17:29:56;19.50;77.60
23591;DHT22;11973;52.098;7.582;2023-09-19T17:32:22;19.50;77.60
23591;DHT22;11973;52.098;7.582;2023-09-19T17:34:48;19.50;77.70
23591;DHT22;11973;52.098;7.582;2023-09-19T17:37:15;19.40;77.80
23591;DHT22;11973;52.098;7.582;2023-09-19T17:39:41;19.40;78.60
23591;DHT22;11973;52.098;7.582;2023-09-19T17:42:06;19.40;77.90
23591;DHT22;11973;52.098;7.582;2023-09-19T17:44:33;19.40;78.00
23591;DHT22;11973;52.098;7.582;2023-09-19T17:47:00;19.40;78.00
23591;DHT22;11973;52.098;7.582;2023-09-19T17:49:27;19.30;78.00
23591;DHT22;11973;52.098;7.582;2023-09-19T17:51:52;19.30;78.10
23591;DHT22;11973;52.098;7.582;2023-09-19T17:54:18;19.30;78.20
23591;DHT22;11973;52.098;7.582;2023-09-19T17:56:44;19.30;78.20
23591;DHT22;11973;52.098;7.582;2023-09-19T17:59:10;19.30;79.10
23591;DHT22;11973;52.098;7.582;2023-09-19T18:01:36;19.30;78.30
23591;DHT22;11973;52.098;7.582;2023-09-19T18:04:02;19.30;78.40
23591;DHT22;11973;52.098;7.582;2023-09-19T18:06:30;19.30;78.40
23591;DHT22;11973;52.098;7.582;2023-09-19T18:09:00;19.20;78.40
23591;DHT22;11973;52.098;7.582;2023-09-19T18:11:26;19.20;78.40
23591;DHT22;11973;52.098;7.582;2023-09-19T18:13:53;19.20;78.50
23591;DHT22;11973;52.098;7.582;2023-09-19T18:16:23;19.20;79.30
23591;DHT22;11973;52.098;7.582;2023-09-19T18:18:50;19.20;78.60
23591;DHT22;11973;52.098;7.582;2023-09-19T18:21:19;19.20;78.60
23591;DHT22;11973;52.098;7.582;2023-09-19T18:23:55;19.20;78.70
23591;DHT22;11973;52.098;7.582;2023-09-19T18:26:22;19.20;78.70
23591;DHT22;11973;52.098;7.582;2023-09-19T18:28:49;19.20;78.80
23591;DHT22;11973;52.098;7.582;2023-09-19T18:31:15;19.20;78.80
23591;DHT22;11973;52.098;7.582;2023-09-19T18:33:43;19.20;79.60
23591;DHT22;11973;52.098;7.582;2023-09-19T18:36:09;19.20;79.70
23591;DHT22;11973;52.098;7.582;2023-09-19T18:38:39;19.20;79.00
23591;DHT22;11973;52.098;7.582;2023-09-19T18:41:09;19.20;79.00
23591;DHT22;11973;52.098;7.582;2023-09-19T18:43:35;19.20;79.10
23591;DHT22;11973;52.098;7.582;2023-09-19T18:46:03;19.20;79.10
23591;DHT22;11973;52.098;7.582;2023-09-19T18:48:31;19.20;79.20
23591;DHT22;11973;52.098;7.582;2023-09-19T18:50:57;19.20;79.30
23591;DHT22;11973;52.098;7.582;2023-09-19T18:53:28;19.20;79.30
23591;DHT22;11973;52.098;7.582;2023-09-19T18:56:09;19.20;79.30
23591;DHT22;11973;52.098;7.582;2023-09-19T18:58:48;19.10;79.30
23591;DHT22;11973;52.098;7.582;2023-09-19T19:01:14;19.10;79.30
23591;DHT22;11973;52.098;7.582;2023-09-19T19:03:42;19.10;79.40
23591;DHT22;11973;52.098;7.582;2023-09-19T19:06:12;19.10;79.50
23591;DHT22;11973;52.098;7.582;2023-09-19T19:08:41;19.10;79.60
23591;DHT22;11973;52.098;7.582;2023-09-19T19:11:09;19.10;79.60
23591;DHT22;11973;52.098;7.582;2023-09-19T19:13:36;19.10;79.70
23591;DHT22;11973;52.098;7.582;2023-09-19T19:16:02;19.10;79.70
23591;DHT22;11973;52.098;7.582;2023-09-19T19:18:28;19.10;79.70
23591;DHT22;11973;52.098;7.582;2023-09-19T19:21:02;19.10;79.70
23591;DHT22;11973;52.098;7.582;2023-09-19T19:23:32;19.00;79.70
23591;DHT22;11973;52.098;7.582;2023-09-19T19:26:01;19.00;79.80
23591;DHT22;11973;52.098;7.582;2023-09-19T19:28:31;19.00;79.80
23591;DHT22;11973;52.098;7.582;2023-09-19T19:30:57;19.00;79.90
23591;DHT22;11973;52.098;7.582;2023-09-19T19:33:23;19.00;80.00
23591;DHT22;11973;52.098;7.582;2023-09-19T19:35:50;18.90;79.90
23591;DHT22;11973;52.098;7.582;2023-09-19T19:38:17;18.90;80.00
23591;DHT22;11973;52.098;7.582;2023-09-19T19:40:43;18.90;80.10
23591;DHT22;11973;52.098;7.582;2023-09-19T19:43:09;18.80;80.00
23591;DHT22;11973;52.098;7.582;2023-09-19T19:45:35;18.80;80.10
23591;DHT22;11973;52.098;7.582;2023-09-19T19:48:01;18.80;80.20
23591;DHT22;11973;52.098;7.582;2023-09-19T19:50:33;18.80;80.20
23591;DHT22;11973;52.098;7.582;2023-09-19T19:53:03;18.80;80.30
23591;DHT22;11973;52.098;7.582;2023-09-19T19:55:31;18.70;80.40
23591;DHT22;11973;52.098;7.582;2023-09-19T19:57:57;18.70;80.50
23591;DHT22;11973;52.098;7.582;2023-09-19T20:00:24;18.70;80.60
23591;DHT22;11973;52.098;7.582;2023-09-19T20:02:50;18.70;80.70
23591;DHT22;11973;52.098;7.582;2023-09-19T20:05:17;18.70;80.80
23591;DHT22;11973;52.098;7.582;2023-09-19T20:07:44;18.70;80.80
23591;DHT22;11973;52.098;7.582;2023-09-19T20:10:11;18.70;80.80
23591;DHT22;11973;52.098;7.582;2023-09-19T20:12:45;18.70;80.90
23591;DHT22;11973;52.098;7.582;2023-09-19T20:15:13;18.70;81.00
23591;DHT22;11973;52.098;7.582;2023-09-19T20:17:39;18.70;81.00
23591;DHT22;11973;52.098;7.582;2023-09-19T20:20:06;18.70;81.00
23591;DHT22;11973;52.098;7.582;2023-09-19T20:22:44;18.80;81.10
23591;DHT22;11973;52.098;7.582;2023-09-19T20:25:14;18.80;81.20
23591;DHT22;11973;52.098;7.582;2023-09-19T20:27:42;18.80;81.20
23591;DHT22;11973;52.098;7.582;2023-09-19T20:30:09;18.80;81.30
23591;DHT22;11973;52.098;7.582;2023-09-19T20:32:38;18.80;81.30
23591;DHT22;11973;52.098;7.582;2023-09-19T20:35:08;18.80;81.40